Time;durP1;ratioP1;P1;durP2;ratioP2;P2;SDS_P1;SDS_P2;PMS_P1;PMS_P2;Temp;Humidity;BMP_temperature;BMP_pressure;BME280_temperature;BME280_humidity;BME280_pressure;Samples;Min_cycle;Max_cycle;Signal;HPM_P1;HPM_P2
2023/04/24 00:02:01;;;;;;;1.75;1.75;;;;;;;;;;5068446;27;98607;-77
2023/04/24 00:04:28;;;;;;;1.63;1.63;;;;;;;;;;5069828;27;99877;-76
2023/04/24 00:06:56;;;;;;;1.55;1.45;;;;;;;;;;5061446;27;98308;-76
2023/04/24 00:09:24;;;;;;;1.65;1.55;;;;;;;;;;5069514;27;98216;-77
2023/04/24 00:11:50;;;;;;;3.08;1.58;;;;;;;;;;5072713;27;99353;-77
2023/04/24 00:14:16;;;;;;;1.58;1.48;;;;;;;;;;5068133;27;99461;-78
2023/04/24 00:16:43;;;;;;;1.77;1.67;;;;;;;;;;5069047;27;99057;-77
2023/04/24 00:19:11;;;;;;;3.67;2.08;;;;;;;;;;5069691;27;98241;-77
2023/04/24 00:21:38;;;;;;;1.63;1.45;;;;;;;;;;5067690;27;98925;-77
2023/04/24 00:24:04;;;;;;;2.35;1.13;;;;;;;;;;5068812;27;100041;-76
2023/04/24 00:26:31;;;;;;;1.30;1.20;;;;;;;;;;5068718;27;98966;-77
2023/04/24 00:28:57;;;;;;;1.52;1.30;;;;;;;;;;5066753;27;98848;-76
2023/04/24 00:31:25;;;;;;;2.22;1.52;;;;;;;;;;5071183;27;100011;-76
2023/04/24 00:33:51;;;;;;;1.50;1.40;;;;;;;;;;5069832;27;98502;-78
2023/04/24 00:36:20;;;;;;;2.90;1.70;;;;;;;;;;5066751;27;99636;-75
2023/04/24 00:38:46;;;;;;;2.55;1.80;;;;;;;;;;5066894;27;98498;-77
2023/04/24 00:41:13;;;;;;;1.80;1.70;;;;;;;;;;5069880;27;98433;-77
2023/04/24 00:43:39;;;;;;;1.90;1.80;;;;;;;;;;5068235;27;99003;-77
2023/04/24 00:46:05;;;;;;;1.90;1.80;;;;;;;;;;5059805;27;98281;-77
2023/04/24 00:48:32;;;;;;;1.92;1.83;;;;;;;;;;5069273;27;98374;-76
2023/04/24 00:50:58;;;;;;;2.00;1.90;;;;;;;;;;5067852;27;99023;-77
2023/04/24 00:53:25;;;;;;;2.28;2.17;;;;;;;;;;5072468;27;98178;-76
2023/04/24 00:55:51;;;;;;;2.03;1.92;;;;;;;;;;5067797;27;100023;-76
2023/04/24 00:58:18;;;;;;;2.30;2.20;;;;;;;;;;5068427;27;98209;-77
2023/04/24 01:00:45;;;;;;;2.30;2.20;;;;;;;;;;5066819;27;99954;-75
2023/04/24 01:03:13;;;;;;;2.13;2.03;;;;;;;;;;5046872;27;101625;-77
2023/04/24 01:05:39;;;;;;;2.20;2.10;;;;;;;;;;5060245;27;98233;-75
2023/04/24 01:08:06;;;;;;;2.50;2.40;;;;;;;;;;5069009;27;98827;-76
2023/04/24 01:10:33;;;;;;;5.60;2.28;;;;;;;;;;5067904;27;99317;-74
2023/04/24 01:13:00;;;;;;;3.00;2.80;;;;;;;;;;5050300;27;99115;-77
2023/04/24 01:15:26;;;;;;;4.95;2.67;;;;;;;;;;5071534;27;98641;-76
2023/04/24 01:17:52;;;;;;;3.45;3.15;;;;;;;;;;5066728;27;98383;-77
2023/04/24 01:20:20;;;;;;;3.15;2.95;;;;;;;;;;5068495;27;99706;-76
2023/04/24 01:22:47;;;;;;;3.85;3.55;;;;;;;;;;5068425;27;100104;-77
2023/04/24 01:25:14;;;;;;;6.07;3.65;;;;;;;;;;5066721;27;98546;-75
2023/04/24 01:27:40;;;;;;;3.95;3.72;;;;;;;;;;5066565;27;99529;-76
2023/04/24 01:30:07;;;;;;;4.25;4.03;;;;;;;;;;5067054;27;100042;-76
2023/04/24 01:32:34;;;;;;;4.40;4.10;;;;;;;;;;5063974;27;98351;-76
2023/04/24 01:35:01;;;;;;;4.05;3.75;;;;;;;;;;5066070;27;99363;-76
2023/04/24 01:37:27;;;;;;;4.10;3.80;;;;;;;;;;5064000;27;99590;-76
2023/04/24 01:39:54;;;;;;;4.65;4.18;;;;;;;;;;5067749;27;99195;-77
2023/04/24 01:42:21;;;;;;;5.78;5.20;;;;;;;;;;5066591;27;100316;-77
2023/04/24 01:44:47;;;;;;;4.80;4.38;;;;;;;;;;5068778;27;98229;-75
2023/04/24 01:47:14;;;;;;;5.95;5.55;;;;;;;;;;5066075;27;101015;-75
2023/04/24 01:49:40;;;;;;;5.72;5.30;;;;;;;;;;5068483;27;98645;-76
2023/04/24 01:52:07;;;;;;;6.22;5.55;;;;;;;;;;5067516;27;98891;-76
2023/04/24 01:54:33;;;;;;;6.20;5.50;;;;;;;;;;5065925;27;99570;-76
2023/04/24 01:57:02;;;;;;;5.18;4.78;;;;;;;;;;5068001;27;99893;-76
2023/04/24 01:59:29;;;;;;;5.57;5.20;;;;;;;;;;5052538;27;98341;-75
2023/04/24 02:01:56;;;;;;;6.45;5.85;;;;;;;;;;5067511;27;99421;-75
2023/04/24 02:04:22;;;;;;;6.90;5.72;;;;;;;;;;5067776;27;98224;-75
2023/04/24 02:06:49;;;;;;;6.18;5.63;;;;;;;;;;5066068;27;99417;-75
2023/04/24 02:30:34;;;;;;;6.75;6.15;;;;;;;;;;5067063;27;98831;-74
2023/04/24 02:33:00;;;;;;;7.43;6.40;;;;;;;;;;5066146;27;99064;-75
2023/04/24 02:35:27;;;;;;;7.00;6.40;;;;;;;;;;5067219;27;98344;-76
2023/04/24 02:37:54;;;;;;;7.05;6.47;;;;;;;;;;5067907;27;98481;-76
2023/04/24 02:40:20;;;;;;;6.80;6.20;;;;;;;;;;5067627;27;99137;-77
2023/04/24 02:42:46;;;;;;;6.93;6.28;;;;;;;;;;5067296;27;98504;-75
2023/04/24 02:45:13;;;;;;;6.22;5.82;;;;;;;;;;5066132;27;98637;-75
2023/04/24 02:47:39;;;;;;;6.43;5.75;;;;;;;;;;5065193;27;98302;-76
2023/04/24 02:50:06;;;;;;;7.57;5.88;;;;;;;;;;5070105;27;98416;-76
2023/04/24 02:52:32;;;;;;;6.30;5.70;;;;;;;;;;5069483;27;101468;-75
2023/04/24 02:54:59;;;;;;;6.40;5.65;;;;;;;;;;5069752;27;98101;-76
2023/04/24 02:57:25;;;;;;;6.78;6.18;;;;;;;;;;5069768;27;98701;-75
2023/04/24 02:59:52;;;;;;;5.82;5.32;;;;;;;;;;5069792;27;101343;-76
2023/04/24 03:02:18;;;;;;;6.90;6.30;;;;;;;;;;5070549;27;98676;-76
2023/04/24 03:04:45;;;;;;;6.72;6.03;;;;;;;;;;5070426;27;99386;-75
2023/04/24 03:07:11;;;;;;;8.38;5.72;;;;;;;;;;5072380;27;101807;-75
2023/04/24 03:09:38;;;;;;;7.05;5.82;;;;;;;;;;5069876;27;98834;-75
2023/04/24 03:12:04;;;;;;;5.88;4.25;;;;;;;;;;5070132;27;99394;-76
2023/04/24 03:14:31;;;;;;;4.75;4.20;;;;;;;;;;5070923;27;98222;-75
2023/04/24 03:16:57;;;;;;;7.75;3.78;;;;;;;;;;5069777;27;98640;-74
2023/04/24 03:19:24;;;;;;;3.17;3.00;;;;;;;;;;5070047;27;98925;-75
2023/04/24 03:21:58;;;;;;;3.55;2.35;;;;;;;;;;5068862;27;98313;-75
2023/04/24 03:24:27;;;;;;;2.70;2.50;;;;;;;;;;5068948;27;99995;-76
2023/04/24 03:26:56;;;;;;;2.47;2.33;;;;;;;;;;5069037;27;101287;-75
2023/04/24 03:29:53;;;;;;;2.28;2.08;;;;;;;;;;5068261;27;99743;-75
2023/04/24 03:32:22;;;;;;;2.08;1.98;;;;;;;;;;5067689;27;99920;-75
2023/04/24 03:34:51;;;;;;;1.90;1.83;;;;;;;;;;5068691;27;98126;-75
2023/04/24 03:37:17;;;;;;;2.00;1.90;;;;;;;;;;5067845;27;100222;-74
2023/04/24 03:39:52;;;;;;;3.42;1.92;;;;;;;;;;5068141;27;101800;-76
2023/04/24 03:42:23;;;;;;;1.92;1.83;;;;;;;;;;5068592;27;98458;-74
2023/04/24 03:44:54;;;;;;;2.47;1.88;;;;;;;;;;5068626;27;100788;-76
2023/04/24 03:47:24;;;;;;;2.00;1.90;;;;;;;;;;5068032;27;98846;-75
2023/04/24 03:49:54;;;;;;;1.85;1.52;;;;;;;;;;5068887;27;98360;-75
2023/04/24 03:52:20;;;;;;;1.77;1.67;;;;;;;;;;5072403;27;98728;-74
2023/04/24 03:54:47;;;;;;;2.63;2.47;;;;;;;;;;5067753;27;99526;-76
2023/04/24 03:57:13;;;;;;;2.20;2.00;;;;;;;;;;5067437;27;98835;-75
2023/04/24 03:59:50;;;;;;;1.88;1.60;;;;;;;;;;5060982;27;101815;-75
2023/04/24 04:02:18;;;;;;;1.60;1.50;;;;;;;;;;5065940;27;98603;-75
2023/04/24 04:04:44;;;;;;;2.30;2.10;;;;;;;;;;5069243;27;100217;-75
2023/04/24 04:07:12;;;;;;;2.35;1.90;;;;;;;;;;5067762;27;101614;-76
2023/04/24 04:09:39;;;;;;;2.00;1.90;;;;;;;;;;5068216;27;98275;-75
2023/04/24 04:12:05;;;;;;;2.65;1.73;;;;;;;;;;5068554;27;100919;-76
2023/04/24 04:14:33;;;;;;;2.88;1.80;;;;;;;;;;5070686;27;100082;-75
2023/04/24 04:16:59;;;;;;;1.95;1.85;;;;;;;;;;5070272;27;98663;-75
2023/04/24 04:19:26;;;;;;;1.25;1.25;;;;;;;;;;5067915;27;99545;-75
2023/04/24 04:21:55;;;;;;;2.20;1.67;;;;;;;;;;5067443;27;98233;-76
2023/04/24 04:24:37;;;;;;;1.30;1.30;;;;;;;;;;5050128;27;101249;-78
2023/04/24 04:27:05;;;;;;;2.65;1.45;;;;;;;;;;5068780;27;99859;-75
2023/04/24 04:29:38;;;;;;;1.30;1.30;;;;;;;;;;5047060;27;98298;-76
2023/04/24 04:32:07;;;;;;;1.90;1.73;;;;;;;;;;5067567;27;98535;-74
2023/04/24 04:34:34;;;;;;;3.45;1.52;;;;;;;;;;5061814;27;99363;-75
2023/04/24 04:37:01;;;;;;;1.55;1.45;;;;;;;;;;5069245;27;99326;-75
2023/04/24 04:39:40;;;;;;;4.00;1.88;;;;;;;;;;5067888;27;99211;-75
2023/04/24 04:42:19;;;;;;;2.17;2.08;;;;;;;;;;5066207;27;98628;-75
2023/04/24 04:44:46;;;;;;;8.55;2.53;;;;;;;;;;5063248;27;100991;-76
2023/04/24 04:47:17;;;;;;;3.20;3.00;;;;;;;;;;5067663;27;101821;-75
2023/04/24 04:49:44;;;;;;;3.80;3.40;;;;;;;;;;5066291;27;98387;-76
2023/04/24 04:52:17;;;;;;;4.50;3.58;;;;;;;;;;5067755;27;101131;-74
2023/04/24 04:54:47;;;;;;;4.38;3.95;;;;;;;;;;5067478;27;100096;-74
2023/04/24 04:57:13;;;;;;;3.75;3.42;;;;;;;;;;5069960;27;98400;-77
2023/04/24 04:59:40;;;;;;;7.28;4.65;;;;;;;;;;5067654;27;100895;-76
2023/04/24 05:02:14;;;;;;;4.32;3.92;;;;;;;;;;5066829;27;98278;-76
2023/04/24 05:04:40;;;;;;;5.47;4.68;;;;;;;;;;5067640;27;98454;-76
2023/04/24 05:07:07;;;;;;;4.35;4.05;;;;;;;;;;5067758;27;100215;-74
2023/04/24 05:09:38;;;;;;;5.57;5.05;;;;;;;;;;5066276;27;99241;-76
2023/04/24 05:12:05;;;;;;;5.35;4.93;;;;;;;;;;5067388;27;101027;-75
2023/04/24 05:14:36;;;;;;;6.32;5.80;;;;;;;;;;5066421;27;101178;-75
2023/04/24 05:17:03;;;;;;;6.30;5.70;;;;;;;;;;5066493;27;98177;-75
2023/04/24 05:19:33;;;;;;;6.95;5.30;;;;;;;;;;5069717;27;98742;-75
2023/04/24 05:22:02;;;;;;;9.05;8.00;;;;;;;;;;5067081;27;98331;-75
2023/04/24 05:24:29;;;;;;;12.05;10.18;;;;;;;;;;5066236;27;99475;-76
2023/04/24 05:27:06;;;;;;;8.82;8.02;;;;;;;;;;5067446;27;98939;-75
2023/04/24 05:29:37;;;;;;;8.52;6.38;;;;;;;;;;5066774;27;98418;-75
2023/04/24 05:32:04;;;;;;;10.52;5.38;;;;;;;;;;5066940;27;98863;-76
2023/04/24 05:34:31;;;;;;;13.40;8.10;;;;;;;;;;5068203;27;98888;-74
2023/04/24 05:36:57;;;;;;;5.85;5.43;;;;;;;;;;5068500;27;98161;-75
2023/04/24 05:39:24;;;;;;;7.97;5.80;;;;;;;;;;5065539;27;99599;-76
2023/04/24 05:41:52;;;;;;;8.32;6.53;;;;;;;;;;5069149;27;101911;-76
2023/04/24 05:44:19;;;;;;;8.82;7.80;;;;;;;;;;5066347;27;99502;-75
2023/04/24 05:46:45;;;;;;;7.72;6.82;;;;;;;;;;5066187;27;99091;-75
2023/04/24 05:49:12;;;;;;;12.70;7.03;;;;;;;;;;5067023;27;98335;-76
2023/04/24 05:51:39;;;;;;;9.20;7.82;;;;;;;;;;5066192;27;101187;-76
2023/04/24 05:54:06;;;;;;;15.43;6.40;;;;;;;;;;5066377;27;98994;-76
2023/04/24 05:56:32;;;;;;;8.65;6.43;;;;;;;;;;5066962;27;98408;-76
2023/04/24 05:59:01;;;;;;;9.00;6.53;;;;;;;;;;5066608;27;99584;-75
2023/04/24 06:01:28;;;;;;;10.93;5.70;;;;;;;;;;5064754;27;100983;-77
2023/04/24 06:04:04;;;;;;;4.38;3.97;;;;;;;;;;5067469;27;98268;-75
2023/04/24 06:06:32;;;;;;;3.92;3.58;;;;;;;;;;5067379;27;98830;-76
2023/04/24 06:08:58;;;;;;;3.78;3.33;;;;;;;;;;5066793;27;98105;-75
2023/04/24 06:11:26;;;;;;;3.20;3.00;;;;;;;;;;5066594;27;99531;-76
2023/04/24 06:13:53;;;;;;;3.00;2.80;;;;;;;;;;5067097;27;98778;-77
2023/04/24 06:16:38;;;;;;;2.58;2.38;;;;;;;;;;5065606;27;98154;-76
2023/04/24 06:19:15;;;;;;;6.15;1.88;;;;;;;;;;5065418;27;100761;-76
2023/04/24 06:21:42;;;;;;;1.50;1.40;;;;;;;;;;5068393;27;101879;-75
2023/04/24 06:24:08;;;;;;;2.58;1.35;;;;;;;;;;5070159;27;99297;-76
2023/04/24 06:26:35;;;;;;;9.30;2.00;;;;;;;;;;5072602;27;101283;-76
2023/04/24 06:29:01;;;;;;;1.70;1.60;;;;;;;;;;5069246;27;98359;-76
2023/04/24 06:31:28;;;;;;;3.45;1.80;;;;;;;;;;5068921;27;98496;-76
2023/04/24 06:33:55;;;;;;;1.95;1.55;;;;;;;;;;5059772;27;101413;-75
2023/04/24 06:36:21;;;;;;;1.85;1.75;;;;;;;;;;5051815;27;98510;-77
2023/04/24 06:38:47;;;;;;;3.67;3.38;;;;;;;;;;5068340;27;100520;-76
2023/04/24 06:41:14;;;;;;;7.57;4.85;;;;;;;;;;5060001;27;100159;-76
2023/04/24 06:43:41;;;;;;;7.90;7.13;;;;;;;;;;5070296;27;98345;-76
2023/04/24 06:46:07;;;;;;;12.73;8.13;;;;;;;;;;5070830;27;99466;-75
2023/04/24 06:48:34;;;;;;;19.90;10.23;;;;;;;;;;5065093;27;98285;-76
2023/04/24 06:51:00;;;;;;;14.50;11.23;;;;;;;;;;5067945;27;99046;-75
2023/04/24 06:53:27;;;;;;;18.00;12.93;;;;;;;;;;5067135;27;100438;-75
2023/04/24 06:55:53;;;;;;;23.45;11.25;;;;;;;;;;5069661;27;98456;-76
2023/04/24 06:58:20;;;;;;;19.77;10.70;;;;;;;;;;5069941;27;98718;-76
2023/04/24 07:00:46;;;;;;;12.15;9.80;;;;;;;;;;5068671;27;99070;-76
2023/04/24 07:03:13;;;;;;;15.48;7.45;;;;;;;;;;5069873;27;99477;-75
2023/04/24 07:05:39;;;;;;;21.80;12.43;;;;;;;;;;5064133;27;99527;-75
2023/04/24 07:08:06;;;;;;;17.33;12.05;;;;;;;;;;5071302;27;99369;-76
2023/04/24 07:10:33;;;;;;;17.23;11.82;;;;;;;;;;5065030;27;99363;-74
2023/04/24 07:13:01;;;;;;;17.33;9.77;;;;;;;;;;5069701;27;99111;-75
2023/04/24 07:15:27;;;;;;;14.45;10.75;;;;;;;;;;5070020;27;98288;-75
2023/04/24 07:17:53;;;;;;;18.90;12.25;;;;;;;;;;5067614;27;99869;-74
2023/04/24 07:20:20;;;;;;;15.88;10.10;;;;;;;;;;5070008;27;99790;-75
2023/04/24 07:22:47;;;;;;;19.60;11.65;;;;;;;;;;5070622;27;98294;-76
2023/04/24 07:25:14;;;;;;;21.20;11.60;;;;;;;;;;5067995;27;99196;-76
2023/04/24 07:27:41;;;;;;;12.85;9.23;;;;;;;;;;5067282;27;99710;-80
2023/04/24 07:30:07;;;;;;;14.15;8.40;;;;;;;;;;5073246;27;98581;-76
2023/04/24 07:32:34;;;;;;;17.23;10.73;;;;;;;;;;5069451;27;100262;-75
2023/04/24 07:35:00;;;;;;;20.00;9.45;;;;;;;;;;5070137;27;99154;-76
2023/04/24 07:37:27;;;;;;;19.55;10.60;;;;;;;;;;5068643;27;98507;-76
2023/04/24 07:39:54;;;;;;;13.50;9.02;;;;;;;;;;5068350;27;99857;-75
2023/04/24 07:42:20;;;;;;;21.77;9.32;;;;;;;;;;5066644;27;98330;-75
2023/04/24 07:44:47;;;;;;;20.70;9.95;;;;;;;;;;5068939;27;98723;-77
2023/04/24 07:47:15;;;;;;;16.05;9.70;;;;;;;;;;5069771;27;99968;-76
2023/04/24 07:49:42;;;;;;;16.70;8.80;;;;;;;;;;5069606;27;98321;-74
2023/04/24 07:52:09;;;;;;;16.95;9.80;;;;;;;;;;5072064;27;98976;-74
2023/04/24 07:54:37;;;;;;;11.27;8.85;;;;;;;;;;5066647;27;98349;-75
2023/04/24 07:57:04;;;;;;;16.60;10.13;;;;;;;;;;5070063;27;99683;-74
2023/04/24 07:59:30;;;;;;;20.90;9.88;;;;;;;;;;5058902;27;99377;-75
2023/04/24 08:01:56;;;;;;;17.38;10.20;;;;;;;;;;5063629;27;99846;-74
2023/04/24 08:04:23;;;;;;;21.85;10.00;;;;;;;;;;5059303;27;98674;-74
2023/04/24 08:06:49;;;;;;;19.13;10.63;;;;;;;;;;5067481;27;99266;-75
2023/04/24 08:09:16;;;;;;;24.08;10.18;;;;;;;;;;5066694;27;98586;-74
2023/04/24 08:11:43;;;;;;;23.65;9.65;;;;;;;;;;5063163;27;98992;-74
2023/04/24 08:14:09;;;;;;;20.67;9.43;;;;;;;;;;5063998;27;98952;-74
2023/04/24 08:16:36;;;;;;;19.67;8.43;;;;;;;;;;5064509;27;99373;-73
2023/04/24 08:19:03;;;;;;;16.73;6.32;;;;;;;;;;5065363;27;98930;-73
2023/04/24 08:21:29;;;;;;;15.35;6.50;;;;;;;;;;5067829;27;98760;-74
2023/04/24 08:23:56;;;;;;;22.40;8.07;;;;;;;;;;5066374;27;98883;-74
2023/04/24 08:26:22;;;;;;;19.30;6.57;;;;;;;;;;5066219;27;99971;-74
2023/04/24 08:28:49;;;;;;;10.75;5.70;;;;;;;;;;5069065;27;98309;-75
2023/04/24 08:31:15;;;;;;;10.20;4.72;;;;;;;;;;5066519;27;99189;-75
2023/04/24 08:33:44;;;;;;;10.80;4.18;;;;;;;;;;5067733;27;98925;-75
2023/04/24 08:36:11;;;;;;;11.13;4.70;;;;;;;;;;5072415;27;98164;-74
2023/04/24 08:38:38;;;;;;;6.45;3.70;;;;;;;;;;5068153;27;99208;-75
2023/04/24 08:41:07;;;;;;;16.20;5.05;;;;;;;;;;5062013;27;99966;-74
2023/04/24 08:43:34;;;;;;;19.77;5.40;;;;;;;;;;5065596;27;99423;-76
2023/04/24 08:46:01;;;;;;;15.20;5.40;;;;;;;;;;5057989;27;99222;-76
2023/04/24 08:48:31;;;;;;;18.88;4.68;;;;;;;;;;5064505;27;98315;-74
2023/04/24 08:50:58;;;;;;;13.60;4.75;;;;;;;;;;5060832;27;99488;-75
2023/04/24 08:53:25;;;;;;;16.83;4.30;;;;;;;;;;5067506;27;99955;-75
2023/04/24 08:55:53;;;;;;;25.08;5.35;;;;;;;;;;5069162;27;98712;-75
2023/04/24 08:58:20;;;;;;;14.20;3.78;;;;;;;;;;5067492;27;100011;-75
2023/04/24 09:00:47;;;;;;;19.92;4.72;;;;;;;;;;5066202;27;98371;-75
2023/04/24 09:03:15;;;;;;;14.63;3.30;;;;;;;;;;5068366;27;99459;-73
2023/04/24 09:05:45;;;;;;;19.95;3.28;;;;;;;;;;5066430;27;99022;-75
2023/04/24 09:08:13;;;;;;;13.02;3.20;;;;;;;;;;5069120;27;98210;-75
2023/04/24 09:10:40;;;;;;;11.02;3.10;;;;;;;;;;5067524;27;99283;-75
2023/04/24 09:13:09;;;;;;;8.98;2.65;;;;;;;;;;5065464;27;100235;-73
2023/04/24 09:15:35;;;;;;;12.27;3.33;;;;;;;;;;5066749;27;99617;-74
2023/04/24 09:18:02;;;;;;;13.80;3.13;;;;;;;;;;5071745;27;99595;-73
2023/04/24 09:20:29;;;;;;;10.85;3.38;;;;;;;;;;5066803;27;98287;-74
2023/04/24 09:22:56;;;;;;;15.00;3.58;;;;;;;;;;5067658;27;99726;-74
2023/04/24 09:25:25;;;;;;;16.02;3.55;;;;;;;;;;5068096;27;99871;-74
2023/04/24 09:27:53;;;;;;;11.13;2.78;;;;;;;;;;5066243;27;98600;-74
2023/04/24 09:30:22;;;;;;;11.52;3.22;;;;;;;;;;5060418;27;98638;-75
2023/04/24 09:32:49;;;;;;;13.23;4.13;;;;;;;;;;5066798;27;99076;-75
2023/04/24 09:35:15;;;;;;;19.33;3.78;;;;;;;;;;5064761;27;98239;-74
2023/04/24 09:37:43;;;;;;;12.35;2.40;;;;;;;;;;5058602;27;99449;-73
2023/04/24 09:40:14;;;;;;;8.25;3.13;;;;;;;;;;5067763;27;98948;-74
2023/04/24 09:42:43;;;;;;;13.30;3.47;;;;;;;;;;5063715;27;98622;-74
2023/04/24 09:45:11;;;;;;;10.23;2.60;;;;;;;;;;5062338;27;99102;-74
2023/04/24 09:47:40;;;;;;;10.43;2.72;;;;;;;;;;5067635;27;98323;-74
2023/04/24 09:50:14;;;;;;;5.53;3.15;;;;;;;;;;5068341;27;99245;-74
2023/04/24 09:52:43;;;;;;;8.90;3.10;;;;;;;;;;5052693;27;100341;-73
2023/04/24 09:55:16;;;;;;;15.07;2.70;;;;;;;;;;5065258;27;99159;-74
2023/04/24 09:57:54;;;;;;;10.00;3.50;;;;;;;;;;5070422;27;99699;-74
2023/04/24 10:00:25;;;;;;;14.07;3.05;;;;;;;;;;5062839;27;99400;-72
2023/04/24 10:03:09;;;;;;;7.38;2.60;;;;;;;;;;5071001;27;98216;-74
2023/04/24 10:05:36;;;;;;;7.20;2.25;;;;;;;;;;5062658;27;99912;-73
2023/04/24 10:08:04;;;;;;;7.60;2.70;;;;;;;;;;5069178;27;98268;-74
2023/04/24 10:10:31;;;;;;;14.95;3.33;;;;;;;;;;5070488;27;99705;-73
2023/04/24 10:12:57;;;;;;;10.18;2.88;;;;;;;;;;5070171;27;99041;-74
2023/04/24 10:15:24;;;;;;;9.93;2.53;;;;;;;;;;5066802;27;98349;-72
2023/04/24 10:17:54;;;;;;;14.90;3.20;;;;;;;;;;5068657;27;99934;-73
2023/04/24 10:20:21;;;;;;;19.73;2.38;;;;;;;;;;5070158;27;99984;-74
2023/04/24 10:22:49;;;;;;;8.15;4.07;;;;;;;;;;5071235;27;98726;-74
2023/04/24 10:25:17;;;;;;;6.50;2.35;;;;;;;;;;5073587;27;98665;-73
2023/04/24 10:27:45;;;;;;;11.73;2.10;;;;;;;;;;5071215;27;98291;-74
2023/04/24 10:30:11;;;;;;;6.30;2.70;;;;;;;;;;5070057;27;99940;-74
2023/04/24 10:32:38;;;;;;;7.80;2.10;;;;;;;;;;5069121;27;99610;-74
2023/04/24 10:35:06;;;;;;;6.03;1.80;;;;;;;;;;5067617;27;98940;-73
2023/04/24 10:37:46;;;;;;;8.57;1.63;;;;;;;;;;5063684;27;99501;-74
2023/04/24 10:40:16;;;;;;;8.07;1.58;;;;;;;;;;5069095;27;99118;-74
2023/04/24 10:42:46;;;;;;;3.40;1.13;;;;;;;;;;5063206;27;98269;-72
2023/04/24 10:45:21;;;;;;;4.57;1.52;;;;;;;;;;5066804;27;98721;-73
2023/04/24 10:47:52;;;;;;;11.90;2.42;;;;;;;;;;5071681;27;98768;-74
2023/04/24 10:50:18;;;;;;;5.85;1.00;;;;;;;;;;5069851;27;98692;-74
2023/04/24 10:52:45;;;;;;;3.88;1.58;;;;;;;;;;5064656;27;99803;-73
2023/04/24 10:55:15;;;;;;;7.95;1.23;;;;;;;;;;5061166;27;98582;-73
2023/04/24 10:58:00;;;;;;;3.38;1.20;;;;;;;;;;5055865;27;100890;-74
2023/04/24 11:00:27;;;;;;;4.38;1.30;;;;;;;;;;5065182;27;99010;-75
2023/04/24 11:02:55;;;;;;;6.40;1.70;;;;;;;;;;5066849;27;99577;-73
2023/04/24 11:05:22;;;;;;;6.18;1.58;;;;;;;;;;5068367;27;98663;-73
2023/04/24 11:08:06;;;;;;;5.63;1.65;;;;;;;;;;5070361;27;100295;-73
2023/04/24 11:10:33;;;;;;;1.83;1.00;;;;;;;;;;5062182;27;99459;-73
2023/04/24 11:13:01;;;;;;;4.45;1.40;;;;;;;;;;5069154;27;100150;-73
2023/04/24 11:15:29;;;;;;;4.13;1.65;;;;;;;;;;5067451;27;98298;-72
2023/04/24 11:17:55;;;;;;;3.28;1.35;;;;;;;;;;5070728;27;99534;-73
2023/04/24 11:20:23;;;;;;;7.55;2.42;;;;;;;;;;5069087;27;99099;-74
2023/04/24 11:22:54;;;;;;;2.92;1.30;;;;;;;;;;5062889;27;98811;-74
2023/04/24 11:25:22;;;;;;;3.25;1.27;;;;;;;;;;5057884;27;99408;-75
2023/04/24 11:27:49;;;;;;;6.60;1.50;;;;;;;;;;5068896;27;100063;-73
2023/04/24 11:30:19;;;;;;;3.40;1.42;;;;;;;;;;5071267;27;98460;-72
2023/04/24 11:32:50;;;;;;;6.68;1.67;;;;;;;;;;5059998;27;101078;-72
2023/04/24 11:35:18;;;;;;;3.15;1.42;;;;;;;;;;5065323;27;98322;-73
2023/04/24 11:37:45;;;;;;;10.73;1.40;;;;;;;;;;5062461;27;100720;-73
2023/04/24 11:40:25;;;;;;;7.50;1.45;;;;;;;;;;5068801;27;100110;-73
2023/04/24 11:42:55;;;;;;;4.10;1.10;;;;;;;;;;5062497;27;98324;-73
2023/04/24 11:45:25;;;;;;;1.90;1.00;;;;;;;;;;5067527;27;99399;-73
2023/04/24 11:47:52;;;;;;;0.73;0.73;;;;;;;;;;5066740;27;98995;-73
2023/04/24 11:50:19;;;;;;;0.85;0.80;;;;;;;;;;5063364;27;98368;-74
2023/04/24 11:52:46;;;;;;;4.07;0.90;;;;;;;;;;5062537;27;99343;-74
2023/04/24 11:55:19;;;;;;;3.30;1.00;;;;;;;;;;5064986;27;99230;-75
2023/04/24 11:57:45;;;;;;;;;;;;;;;;;;5063539;27;99867;-74
2023/04/24 12:00:15;;;;;;;1.27;0.63;;;;;;;;;;5066148;27;128355;-73
2023/04/24 12:02:42;;;;;;;3.28;0.95;;;;;;;;;;5066215;27;98277;-74
2023/04/24 12:05:08;;;;;;;2.58;1.17;;;;;;;;;;5065934;27;99651;-76
2023/04/24 12:07:44;;;;;;;1.48;0.57;;;;;;;;;;5068828;27;99031;-73
2023/04/24 12:10:11;;;;;;;3.72;1.00;;;;;;;;;;5065962;27;98262;-74
2023/04/24 12:12:37;;;;;;;2.80;0.75;;;;;;;;;;5066714;27;99443;-74
2023/04/24 12:15:07;;;;;;;2.35;1.23;;;;;;;;;;5070479;27;99924;-74
2023/04/24 12:17:34;;;;;;;4.68;1.25;;;;;;;;;;5060312;27;98735;-74
2023/04/24 12:20:02;;;;;;;5.28;1.35;;;;;;;;;;5066055;27;100088;-74
2023/04/24 12:22:43;;;;;;;4.88;1.30;;;;;;;;;;5062757;27;98283;-74
2023/04/24 12:25:10;;;;;;;5.75;1.23;;;;;;;;;;5061094;27;98744;-74
2023/04/24 12:27:36;;;;;;;4.00;1.27;;;;;;;;;;5063568;27;98926;-74
2023/04/24 12:30:04;;;;;;;1.77;1.08;;;;;;;;;;5056386;27;98318;-73
2023/04/24 12:32:31;;;;;;;3.42;1.17;;;;;;;;;;5067222;27;99348;-74
2023/04/24 12:34:58;;;;;;;5.18;1.65;;;;;;;;;;5068643;27;99992;-74
2023/04/24 12:37:32;;;;;;;5.13;1.40;;;;;;;;;;5072045;27;98295;-74
2023/04/24 12:40:01;;;;;;;2.57;1.30;;;;;;;;;;5067131;27;100169;-73
2023/04/24 12:42:29;;;;;;;6.70;1.90;;;;;;;;;;5066572;27;99633;-74
2023/04/24 12:44:56;;;;;;;7.53;1.30;;;;;;;;;;5067972;27;98853;-73
2023/04/24 12:47:22;;;;;;;4.35;2.28;;;;;;;;;;5067762;27;99983;-73
2023/04/24 12:49:50;;;;;;;9.15;1.88;;;;;;;;;;5066608;27;99203;-72
2023/04/24 12:52:23;;;;;;;6.03;1.70;;;;;;;;;;5060501;27;99343;-73
2023/04/24 12:54:50;;;;;;;12.40;1.95;;;;;;;;;;5058935;27;99977;-73
2023/04/24 12:57:17;;;;;;;7.82;1.85;;;;;;;;;;5070993;27;98309;-74
2023/04/24 12:59:44;;;;;;;6.88;1.95;;;;;;;;;;5064545;27;98848;-73
2023/04/24 13:02:11;;;;;;;8.18;1.90;;;;;;;;;;5066374;27;98901;-73
2023/04/24 13:04:37;;;;;;;6.90;2.17;;;;;;;;;;5058398;27;99416;-71
2023/04/24 13:07:04;;;;;;;14.52;2.60;;;;;;;;;;5066409;27;99919;-73
2023/04/24 13:09:34;;;;;;;9.45;3.47;;;;;;;;;;5067284;27;98283;-73
2023/04/24 13:12:01;;;;;;;17.27;3.30;;;;;;;;;;5054833;27;98887;-73
2023/04/24 13:14:27;;;;;;;13.15;2.85;;;;;;;;;;5065477;27;99878;-72
2023/04/24 13:16:54;;;;;;;12.73;3.05;;;;;;;;;;5067411;27;98346;-73
2023/04/24 13:19:20;;;;;;;10.68;2.40;;;;;;;;;;5069650;27;99038;-73
2023/04/24 13:21:47;;;;;;;8.98;2.50;;;;;;;;;;5066322;27;98307;-73
2023/04/24 13:24:13;;;;;;;10.23;2.88;;;;;;;;;;5058728;27;99917;-74
2023/04/24 13:26:39;;;;;;;12.52;3.03;;;;;;;;;;5067803;27;99904;-73
2023/04/24 13:29:06;;;;;;;10.07;2.85;;;;;;;;;;5066411;27;98307;-73
2023/04/24 13:31:32;;;;;;;14.73;2.60;;;;;;;;;;5064516;27;100066;-74
2023/04/24 13:33:59;;;;;;;10.18;3.03;;;;;;;;;;5067902;27;100189;-71
2023/04/24 13:36:25;;;;;;;12.70;2.88;;;;;;;;;;5065013;27;98670;-73
2023/04/24 13:38:52;;;;;;;7.65;2.92;;;;;;;;;;5064226;27;99282;-73
2023/04/24 13:41:19;;;;;;;9.85;2.88;;;;;;;;;;5065719;27;98975;-73
2023/04/24 13:43:45;;;;;;;15.52;3.63;;;;;;;;;;5066001;27;99427;-73
2023/04/24 13:46:11;;;;;;;13.50;3.90;;;;;;;;;;5067048;27;99998;-73
2023/04/24 13:48:38;;;;;;;13.07;3.00;;;;;;;;;;5053648;27;98657;-73
2023/04/24 13:51:04;;;;;;;11.38;3.05;;;;;;;;;;5065883;27;99537;-73
2023/04/24 13:53:32;;;;;;;11.48;2.55;;;;;;;;;;5066052;27;99975;-74
2023/04/24 13:55:58;;;;;;;5.65;2.70;;;;;;;;;;5064521;27;98818;-73
2023/04/24 13:58:24;;;;;;;9.85;2.90;;;;;;;;;;5065505;27;99523;-73
2023/04/24 14:00:51;;;;;;;9.40;2.90;;;;;;;;;;5062137;27;100163;-74
2023/04/24 14:03:17;;;;;;;11.88;2.53;;;;;;;;;;5070830;27;98065;-73
2023/04/24 14:05:44;;;;;;;10.07;3.00;;;;;;;;;;5066648;27;99757;-73
2023/04/24 14:08:10;;;;;;;11.23;2.80;;;;;;;;;;5067142;27;98301;-73
2023/04/24 14:10:37;;;;;;;14.15;3.70;;;;;;;;;;5061718;27;98925;-73
2023/04/24 14:13:03;;;;;;;9.73;2.53;;;;;;;;;;5063762;27;99966;-74
2023/04/24 14:15:29;;;;;;;12.70;3.35;;;;;;;;;;5067039;27;98280;-74
2023/04/24 14:17:56;;;;;;;15.00;3.10;;;;;;;;;;5065501;27;99312;-75
2023/04/24 14:20:22;;;;;;;7.57;2.50;;;;;;;;;;5066070;27;99043;-74
2023/04/24 14:22:49;;;;;;;11.55;4.25;;;;;;;;;;5064468;27;98253;-74
2023/04/24 14:25:15;;;;;;;11.43;3.35;;;;;;;;;;5060274;27;98673;-73
2023/04/24 14:27:42;;;;;;;10.82;3.72;;;;;;;;;;5064523;27;98466;-73
2023/04/24 14:30:08;;;;;;;13.32;3.83;;;;;;;;;;5065005;27;98714;-73
2023/04/24 14:32:35;;;;;;;8.80;3.55;;;;;;;;;;5065332;27;100297;-73
2023/04/24 14:35:02;;;;;;;13.75;3.55;;;;;;;;;;5065293;27;98498;-73
2023/04/24 14:37:28;;;;;;;12.07;3.50;;;;;;;;;;5064959;27;99239;-73
2023/04/24 14:39:55;;;;;;;3.20;2.10;;;;;;;;;;5065809;27;99287;-73
2023/04/24 14:42:41;;;;;;;10.55;3.40;;;;;;;;;;5068091;27;98409;-73
2023/04/24 14:45:08;;;;;;;12.63;3.75;;;;;;;;;;5069836;27;99080;-72
2023/04/24 14:47:36;;;;;;;18.17;4.10;;;;;;;;;;5071757;27;99683;-73
2023/04/24 14:50:03;;;;;;;11.27;3.70;;;;;;;;;;5070952;27;99229;-72
2023/04/24 14:52:30;;;;;;;11.13;3.50;;;;;;;;;;5067407;27;100021;-73
2023/04/24 14:54:56;;;;;;;12.38;3.10;;;;;;;;;;5069828;27;98291;-74
2023/04/24 14:57:23;;;;;;;13.63;3.17;;;;;;;;;;5070383;27;98605;-73
2023/04/24 14:59:49;;;;;;;11.98;3.20;;;;;;;;;;5069813;27;98995;-72
2023/04/24 15:02:15;;;;;;;12.07;3.40;;;;;;;;;;5068697;27;98265;-72